createdAt,value
2019-05-05T00:01:37.167Z,0.26
2019-05-05T00:04:28.142Z,0.24
2019-05-05T00:07:01.336Z,0.09
2019-05-05T00:09:34.944Z,0.02
2019-05-05T00:12:26.189Z,-0.04
2019-05-05T00:15:17.998Z,-0.08
2019-05-05T00:17:51.083Z,-0.11
2019-05-05T00:20:25.082Z,-0.14
2019-05-05T00:22:58.392Z,-0.08
2019-05-05T00:25:31.728Z,0.05
2019-05-05T00:28:05.219Z,0.03
2019-05-05T00:30:37.859Z,-0.11
2019-05-05T00:33:11.060Z,0.05
2019-05-05T00:35:45.203Z,0.27
2019-05-05T00:38:18.241Z,0.23
2019-05-05T00:40:51.786Z,0.16
2019-05-05T00:43:25.249Z,0.10
2019-05-05T00:46:04.651Z,0.17
2019-05-05T00:48:45.575Z,0.22
2019-05-05T00:51:18.636Z,0.20
2019-05-05T00:53:51.621Z,0.22
2019-05-05T00:56:25.112Z,0.28
2019-05-05T00:59:02.014Z,0.24
2019-05-05T01:02:06.671Z,0.32
2019-05-05T01:04:48.237Z,0.40
2019-05-05T01:07:21.628Z,0.54
2019-05-05T01:09:54.615Z,0.63
2019-05-05T01:12:27.820Z,0.75
2019-05-05T01:15:01.624Z,0.84
2019-05-05T01:17:34.734Z,0.82
2019-05-05T01:20:08.744Z,0.79
2019-05-05T01:22:41.674Z,0.56
2019-05-05T01:25:15.229Z,0.51
2019-05-05T01:27:47.878Z,0.56
2019-05-05T01:30:24.919Z,0.65
2019-05-05T01:33:10.691Z,0.68
2019-05-05T01:35:44.794Z,0.77
2019-05-05T01:38:24.814Z,0.84
2019-05-05T01:41:06.335Z,0.90
2019-05-05T01:43:40.226Z,0.88
2019-05-05T01:46:14.345Z,0.82
2019-05-05T01:48:47.436Z,0.70
2019-05-05T01:51:20.826Z,0.36
2019-05-05T01:53:54.697Z,0.18
2019-05-05T01:56:28.663Z,0.06
2019-05-05T01:59:01.628Z,0.03
2019-05-05T02:01:35.306Z,-0.08
2019-05-05T02:04:09.174Z,-0.08
2019-05-05T02:06:44.312Z,-0.06
2019-05-05T02:09:16.674Z,-0.03
2019-05-05T02:11:50.159Z,0.02
2019-05-05T02:14:24.632Z,0.06
2019-05-05T02:16:57.457Z,0.08
2019-05-05T02:19:31.064Z,-0.08
2019-05-05T02:22:05.271Z,-0.21
2019-05-05T15:31:57.600Z,11.03
2019-05-05T15:34:30.481Z,11.00
2019-05-05T15:37:03.900Z,10.60
2019-05-05T15:39:44.131Z,10.06
2019-05-05T15:42:17.964Z,9.17
2019-05-05T15:44:54.633Z,8.61
2019-05-05T15:47:30.905Z,8.43
2019-05-05T15:50:05.224Z,8.19
2019-05-05T15:52:38.448Z,8.18
2019-05-05T15:55:13.899Z,7.88
2019-05-05T15:57:47.894Z,7.84
2019-05-05T16:00:21.815Z,7.87
2019-05-05T16:02:55.116Z,7.71
2019-05-05T16:05:28.360Z,7.58
2019-05-05T16:08:01.187Z,7.89
2019-05-05T16:10:35.182Z,7.98
2019-05-05T16:13:08.778Z,8.24
2019-05-05T16:15:56.927Z,8.42
2019-05-05T16:18:36.969Z,8.55
2019-05-05T16:21:34.608Z,8.76
2019-05-05T16:24:15.362Z,8.97
2019-05-05T16:26:48.502Z,9.37
2019-05-05T16:29:23.650Z,9.36
2019-05-05T16:31:56.725Z,9.73
2019-05-05T16:34:30.329Z,9.44
2019-05-05T16:37:04.289Z,9.37
2019-05-05T16:39:37.715Z,9.42
2019-05-05T16:42:10.824Z,9.55
2019-05-05T16:44:44.027Z,9.48
2019-05-05T16:47:17.235Z,9.63
2019-05-05T16:49:50.433Z,9.48
2019-05-05T16:52:49.029Z,9.64
2019-05-05T16:55:48.927Z,9.76
2019-05-05T16:58:24.072Z,9.57
2019-05-05T17:00:57.250Z,9.23
2019-05-05T17:03:30.818Z,8.96
2019-05-05T17:06:04.857Z,8.80
2019-05-05T17:08:38.877Z,8.72
2019-05-05T17:11:14.774Z,8.64
2019-05-05T17:14:01.572Z,8.63
2019-05-05T17:17:06.865Z,8.31
2019-05-05T17:19:49.600Z,8.19
2019-05-05T17:22:41.096Z,8.15
2019-05-05T17:25:14.593Z,8.09
2019-05-05T17:27:51.256Z,8.30
2019-05-05T17:30:27.007Z,8.47
2019-05-05T17:32:59.723Z,8.62
2019-05-05T17:35:33.706Z,8.64
2019-05-05T17:38:08.737Z,8.68
2019-05-05T17:40:59.778Z,8.80
2019-05-05T17:43:55.069Z,8.69
2019-05-05T17:46:46.848Z,8.48
2019-05-05T17:49:28.300Z,8.36
2019-05-05T17:52:07.870Z,8.09
2019-05-05T17:54:44.608Z,8.08
2019-05-05T17:57:17.957Z,8.02
2019-05-05T17:59:53.642Z,7.80
2019-05-05T18:02:27.496Z,7.62
2019-05-05T18:05:01.156Z,7.60
2019-05-05T18:07:38.085Z,7.51
2019-05-05T18:10:37.470Z,7.51
2019-05-05T18:13:24.370Z,7.32
2019-05-05T18:16:01.428Z,7.19
2019-05-05T18:18:34.208Z,7.09
2019-05-05T18:21:07.230Z,7.00
2019-05-05T18:23:40.921Z,7.00
2019-05-05T18:26:14.850Z,6.70
2019-05-05T18:28:48.613Z,6.60
2019-05-05T18:31:24.301Z,6.41
2019-05-05T18:33:57.248Z,6.40
2019-05-05T18:36:30.453Z,6.17
2019-05-05T18:39:05.177Z,6.01
2019-05-05T18:41:52.332Z,5.83
2019-05-05T18:44:35.466Z,5.74
2019-05-05T18:47:26.276Z,5.68
2019-05-05T18:49:59.854Z,5.61
2019-05-05T18:52:34.631Z,5.67
2019-05-05T18:55:08.087Z,5.72
2019-05-05T18:57:40.921Z,5.51
2019-05-05T19:00:15.998Z,5.48
2019-05-05T19:03:01.466Z,5.45
2019-05-05T19:05:39.972Z,5.41
2019-05-05T19:08:51.163Z,5.29
2019-05-05T19:11:14.097Z,5.06
2019-05-05T19:13:47.228Z,4.84
2019-05-05T19:16:21.106Z,4.77
2019-05-05T19:18:55.757Z,4.71
2019-05-05T19:21:33.976Z,4.66
2019-05-05T19:24:07.787Z,4.43
2019-05-05T19:26:40.576Z,4.31
2019-05-05T19:29:14.277Z,4.24
2019-05-05T19:31:47.699Z,4.16
2019-05-05T19:34:20.923Z,4.06
2019-05-05T19:36:54.800Z,3.94
2019-05-05T19:39:27.698Z,3.83
2019-05-05T19:42:01.209Z,3.85
2019-05-05T19:44:35.050Z,3.93
2019-05-05T19:47:19.633Z,3.82
2019-05-05T19:50:01.341Z,3.97
2019-05-05T19:52:34.896Z,3.98
2019-05-05T19:55:07.885Z,3.95
2019-05-05T19:57:41.810Z,3.96
2019-05-05T20:00:16.471Z,4.11
2019-05-05T20:03:01.286Z,3.95
2019-05-05T20:05:25.581Z,3.89
2019-05-05T20:08:00.289Z,3.77
2019-05-05T20:10:33.341Z,3.76
2019-05-05T20:13:06.913Z,3.76
2019-05-05T20:15:53.722Z,3.75
2019-05-05T20:18:27.331Z,3.73
2019-05-05T20:21:06.396Z,3.73
2019-05-05T20:23:37.315Z,3.68
2019-05-05T20:26:10.487Z,3.61
2019-05-05T20:28:45.733Z,3.56
2019-05-05T20:31:19.591Z,3.66
2019-05-05T20:34:27.528Z,3.69
2019-05-05T20:37:13.989Z,3.51
2019-05-05T20:39:47.146Z,3.51
2019-05-05T20:42:20.605Z,3.48
2019-05-05T20:44:54.426Z,3.55
2019-05-05T20:47:28.502Z,3.63
2019-05-05T20:50:01.956Z,3.55
2019-05-05T20:52:35.456Z,3.46
2019-05-05T20:55:08.756Z,3.38
2019-05-05T20:57:44.203Z,3.39
2019-05-05T21:00:18.558Z,3.28
2019-05-05T21:02:53.781Z,3.35
2019-05-05T21:05:28.028Z,3.28
2019-05-05T21:08:01.153Z,3.15
2019-05-05T21:10:34.914Z,3.08
2019-05-05T21:13:08.576Z,3.11
2019-05-05T21:15:44.856Z,3.03
2019-05-05T21:18:18.141Z,3.03
2019-05-05T21:20:51.367Z,3.11
2019-05-05T21:23:30.901Z,3.17
2019-05-05T21:26:06.439Z,3.14
2019-05-05T21:28:39.896Z,3.02
2019-05-05T21:31:14.506Z,3.02
2019-05-05T21:33:48.171Z,2.87
2019-05-05T21:36:21.213Z,2.89
2019-05-05T21:38:54.932Z,2.86
2019-05-05T21:41:28.284Z,2.83
2019-05-05T21:44:03.643Z,2.82
2019-05-05T21:46:36.758Z,2.81
2019-05-05T21:49:09.620Z,2.70
2019-05-05T21:52:08.255Z,2.65
2019-05-05T21:54:48.688Z,2.71
2019-05-05T21:57:40.835Z,2.67
2019-05-05T22:00:40.673Z,2.68
2019-05-05T22:03:21.272Z,2.67
2019-05-05T22:05:56.019Z,2.61
2019-05-05T22:08:29.886Z,2.55
2019-05-05T22:11:04.036Z,2.51
2019-05-05T22:13:36.931Z,2.41
2019-05-05T22:16:10.300Z,2.43
2019-05-05T22:18:44.673Z,2.42
2019-05-05T22:21:36.059Z,2.43
2019-05-05T22:24:16.469Z,2.33
2019-05-05T22:26:50.135Z,2.23
2019-05-05T22:29:24.868Z,2.20
2019-05-05T22:31:58.067Z,2.19
2019-05-05T22:34:33.398Z,2.22
2019-05-05T22:37:09.554Z,2.18
2019-05-05T22:39:41.923Z,2.15
2019-05-05T22:42:15.735Z,2.13
2019-05-05T22:44:49.347Z,2.28
2019-05-05T22:47:23.634Z,2.46
2019-05-05T22:49:56.718Z,2.48
2019-05-05T22:52:30.138Z,2.57
2019-05-05T22:55:04.501Z,2.57
2019-05-05T22:57:37.446Z,2.47
2019-05-05T23:00:26.009Z,2.51
2019-05-05T23:02:55.071Z,2.48
2019-05-05T23:05:36.620Z,2.33
2019-05-05T23:08:09.411Z,2.30
2019-05-05T23:10:43.810Z,2.29
2019-05-05T23:13:16.867Z,2.22
2019-05-05T23:15:59.662Z,2.07
2019-05-05T23:18:34.802Z,1.96
2019-05-05T23:21:30.388Z,1.97
2019-05-05T23:24:23.932Z,1.97
2019-05-05T23:26:57.206Z,1.91
2019-05-05T23:29:31.001Z,1.90
2019-05-05T23:32:03.643Z,1.96
2019-05-05T23:34:36.500Z,1.96
2019-05-05T23:37:09.169Z,1.69
2019-05-05T23:39:42.687Z,1.45
2019-05-05T23:42:16.320Z,1.42
2019-05-05T23:44:49.368Z,1.40
2019-05-05T23:47:24.619Z,1.33
2019-05-05T23:49:57.219Z,1.28
2019-05-05T23:52:34.851Z,1.48
2019-05-05T23:55:08.101Z,1.54
2019-05-05T23:57:41.039Z,1.67
